Weather at Palmahim South Airstrip

Public forecast

Using degrees Celsius for public forecast. Weather courtesy of forecast.io.

Closest aviation weather report (METAR) to Palmahim South Airstrip

Closest report is Ben Gurion International Airport, 13.1 nm (24.3 km) NE.

2024/07/21 12:20 (retrieved 26 minutes ago)

LLBG 211220Z 29012KT CAVOK 33/24 Q1005 NOSIG

Closest aviation forecast (TAF) to Palmahim South Airstrip

Closest forecast is Ben Gurion International Airport, 13.1 nm (24.3 km) NE.

2024/07/21 12:09 (retrieved 37 minutes ago)

TAF TAF LLBG 211105Z 2112/2212 28010KT CAVOK BECMG 2115/2117 VRB03KT 9999 FEW020 BECMG 2121/2123 SCT015 PROB40 TEMPO 2200/2205 17005KT 8000 BKN014 BECMG 2207/2209 28012KT FEW020 TX34/2112Z TN27/2203Z